sensor_id;sensor_type;location;lat;lon;timestamp;P1;durP1;ratioP1;P2;durP2;ratioP2
40871;SDS011;26591;43.264;26.940;2022-12-18T00:00:43;4.10;;;2.90;;
40871;SDS011;26591;43.264;26.940;2022-12-18T00:03:11;4.60;;;2.75;;
40871;SDS011;26591;43.264;26.940;2022-12-18T00:05:45;3.92;;;2.95;;
40871;SDS011;26591;43.264;26.940;2022-12-18T00:08:14;6.97;;;3.33;;
40871;SDS011;26591;43.264;26.940;2022-12-18T00:10:40;3.05;;;2.72;;
40871;SDS011;26591;43.264;26.940;2022-12-18T00:13:07;6.10;;;2.90;;
40871;SDS011;26591;43.264;26.940;2022-12-18T00:15:34;3.83;;;3.15;;
40871;SDS011;26591;43.264;26.940;2022-12-18T00:17:59;3.78;;;2.80;;
40871;SDS011;26591;43.264;26.940;2022-12-18T00:20:25;5.47;;;3.15;;
40871;SDS011;26591;43.264;26.940;2022-12-18T00:22:51;4.27;;;3.00;;
40871;SDS011;26591;43.264;26.940;2022-12-18T00:25:18;4.18;;;3.00;;
40871;SDS011;26591;43.264;26.940;2022-12-18T00:27:43;4.18;;;2.95;;
40871;SDS011;26591;43.264;26.940;2022-12-18T00:30:09;4.35;;;3.35;;
40871;SDS011;26591;43.264;26.940;2022-12-18T00:32:35;4.32;;;3.05;;
40871;SDS011;26591;43.264;26.940;2022-12-18T00:35:00;3.58;;;2.90;;
40871;SDS011;26591;43.264;26.940;2022-12-18T00:37:26;3.92;;;3.28;;
40871;SDS011;26591;43.264;26.940;2022-12-18T00:39:51;4.47;;;3.17;;
40871;SDS011;26591;43.264;26.940;2022-12-18T00:42:17;6.57;;;5.03;;
40871;SDS011;26591;43.264;26.940;2022-12-18T00:45:01;3.83;;;2.70;;
40871;SDS011;26591;43.264;26.940;2022-12-18T00:47:26;3.40;;;2.85;;
40871;SDS011;26591;43.264;26.940;2022-12-18T00:49:52;7.28;;;2.92;;
40871;SDS011;26591;43.264;26.940;2022-12-18T00:52:17;3.10;;;2.78;;
40871;SDS011;26591;43.264;26.940;2022-12-18T00:54:42;3.65;;;2.90;;
40871;SDS011;26591;43.264;26.940;2022-12-18T00:57:08;5.13;;;3.15;;
40871;SDS011;26591;43.264;26.940;2022-12-18T00:59:33;3.90;;;3.30;;
40871;SDS011;26591;43.264;26.940;2022-12-18T01:02:01;3.75;;;2.80;;
40871;SDS011;26591;43.264;26.940;2022-12-18T01:04:27;3.95;;;2.92;;
40871;SDS011;26591;43.264;26.940;2022-12-18T01:06:53;3.83;;;2.95;;
40871;SDS011;26591;43.264;26.940;2022-12-18T01:09:19;4.50;;;2.80;;
40871;SDS011;26591;43.264;26.940;2022-12-18T01:11:44;3.00;;;2.60;;
40871;SDS011;26591;43.264;26.940;2022-12-18T01:14:10;3.70;;;2.78;;
40871;SDS011;26591;43.264;26.940;2022-12-18T01:16:35;3.75;;;2.80;;
40871;SDS011;26591;43.264;26.940;2022-12-18T01:19:01;3.40;;;2.90;;
40871;SDS011;26591;43.264;26.940;2022-12-18T01:21:26;8.98;;;3.80;;
40871;SDS011;26591;43.264;26.940;2022-12-18T01:23:52;3.50;;;2.95;;
40871;SDS011;26591;43.264;26.940;2022-12-18T01:26:19;5.28;;;3.80;;
40871;SDS011;26591;43.264;26.940;2022-12-18T01:28:45;4.40;;;2.95;;
40871;SDS011;26591;43.264;26.940;2022-12-18T01:31:30;3.95;;;3.30;;
40871;SDS011;26591;43.264;26.940;2022-12-18T01:33:57;4.40;;;3.00;;
40871;SDS011;26591;43.264;26.940;2022-12-18T01:36:26;4.43;;;3.40;;
40871;SDS011;26591;43.264;26.940;2022-12-18T01:38:54;4.45;;;3.67;;
40871;SDS011;26591;43.264;26.940;2022-12-18T01:41:21;5.72;;;3.80;;
40871;SDS011;26591;43.264;26.940;2022-12-18T01:46:22;5.28;;;3.75;;
40871;SDS011;26591;43.264;26.940;2022-12-18T01:48:53;6.18;;;3.90;;
40871;SDS011;26591;43.264;26.940;2022-12-18T01:51:25;8.45;;;4.20;;
40871;SDS011;26591;43.264;26.940;2022-12-18T01:53:52;6.38;;;4.65;;
40871;SDS011;26591;43.264;26.940;2022-12-18T01:56:18;6.53;;;4.63;;
40871;SDS011;26591;43.264;26.940;2022-12-18T01:58:50;5.97;;;4.43;;
40871;SDS011;26591;43.264;26.940;2022-12-18T02:01:22;5.97;;;3.97;;
40871;SDS011;26591;43.264;26.940;2022-12-18T02:03:49;7.22;;;4.60;;
40871;SDS011;26591;43.264;26.940;2022-12-18T02:16:43;6.95;;;4.90;;
40871;SDS011;26591;43.264;26.940;2022-12-18T02:22:17;6.93;;;4.88;;
40871;SDS011;26591;43.264;26.940;2022-12-18T02:28:09;7.30;;;5.38;;
40871;SDS011;26591;43.264;26.940;2022-12-18T02:30:38;7.88;;;5.22;;
40871;SDS011;26591;43.264;26.940;2022-12-18T02:33:06;9.75;;;5.93;;
40871;SDS011;26591;43.264;26.940;2022-12-18T02:35:34;10.70;;;6.10;;
40871;SDS011;26591;43.264;26.940;2022-12-18T02:38:01;15.23;;;7.90;;
40871;SDS011;26591;43.264;26.940;2022-12-18T02:40:29;10.95;;;6.40;;
40871;SDS011;26591;43.264;26.940;2022-12-18T02:42:55;8.98;;;5.88;;
40871;SDS011;26591;43.264;26.940;2022-12-18T02:45:51;8.60;;;5.80;;
40871;SDS011;26591;43.264;26.940;2022-12-18T02:48:22;10.43;;;6.68;;
40871;SDS011;26591;43.264;26.940;2022-12-18T02:50:54;10.30;;;6.70;;
40871;SDS011;26591;43.264;26.940;2022-12-18T02:53:36;9.63;;;6.30;;
40871;SDS011;26591;43.264;26.940;2022-12-18T02:56:08;10.68;;;6.90;;
40871;SDS011;26591;43.264;26.940;2022-12-18T02:58:59;9.43;;;5.35;;
40871;SDS011;26591;43.264;26.940;2022-12-18T03:01:34;11.75;;;5.82;;
40871;SDS011;26591;43.264;26.940;2022-12-18T03:04:11;9.15;;;6.38;;
40871;SDS011;26591;43.264;26.940;2022-12-18T03:06:43;8.73;;;6.15;;
40871;SDS011;26591;43.264;26.940;2022-12-18T03:09:14;9.68;;;6.30;;
40871;SDS011;26591;43.264;26.940;2022-12-18T03:12:04;9.88;;;6.45;;
40871;SDS011;26591;43.264;26.940;2022-12-18T03:15:03;11.25;;;7.28;;
40871;SDS011;26591;43.264;26.940;2022-12-18T03:17:32;10.00;;;7.05;;
40871;SDS011;26591;43.264;26.940;2022-12-18T03:20:03;13.45;;;8.35;;
40871;SDS011;26591;43.264;26.940;2022-12-18T03:22:37;12.07;;;8.18;;
40871;SDS011;26591;43.264;26.940;2022-12-18T03:25:07;13.52;;;8.35;;
40871;SDS011;26591;43.264;26.940;2022-12-18T03:27:36;11.63;;;7.72;;
40871;SDS011;26591;43.264;26.940;2022-12-18T03:30:06;12.63;;;8.60;;
40871;SDS011;26591;43.264;26.940;2022-12-18T03:32:39;12.93;;;8.40;;
40871;SDS011;26591;43.264;26.940;2022-12-18T03:35:10;11.95;;;8.27;;
40871;SDS011;26591;43.264;26.940;2022-12-18T03:37:38;12.00;;;8.15;;
40871;SDS011;26591;43.264;26.940;2022-12-18T03:40:04;14.93;;;8.30;;
40871;SDS011;26591;43.264;26.940;2022-12-18T03:42:43;15.50;;;9.30;;
40871;SDS011;26591;43.264;26.940;2022-12-18T03:48:01;16.23;;;9.23;;
40871;SDS011;26591;43.264;26.940;2022-12-18T03:50:38;14.82;;;9.02;;
40871;SDS011;26591;43.264;26.940;2022-12-18T03:56:03;16.58;;;9.85;;
40871;SDS011;26591;43.264;26.940;2022-12-18T03:58:30;13.60;;;8.70;;
40871;SDS011;26591;43.264;26.940;2022-12-18T04:01:00;14.40;;;9.15;;
40871;SDS011;26591;43.264;26.940;2022-12-18T04:03:28;13.00;;;9.00;;
40871;SDS011;26591;43.264;26.940;2022-12-18T04:05:56;18.48;;;9.95;;
40871;SDS011;26591;43.264;26.940;2022-12-18T04:08:24;15.32;;;9.25;;
40871;SDS011;26591;43.264;26.940;2022-12-18T04:10:50;15.60;;;10.55;;
40871;SDS011;26591;43.264;26.940;2022-12-18T04:13:29;16.48;;;10.00;;
40871;SDS011;26591;43.264;26.940;2022-12-18T04:15:57;20.00;;;10.00;;
40871;SDS011;26591;43.264;26.940;2022-12-18T04:18:22;17.00;;;11.07;;
40871;SDS011;26591;43.264;26.940;2022-12-18T04:20:48;14.30;;;9.45;;
40871;SDS011;26591;43.264;26.940;2022-12-18T04:23:13;15.50;;;10.15;;
40871;SDS011;26591;43.264;26.940;2022-12-18T04:25:39;16.00;;;9.98;;
40871;SDS011;26591;43.264;26.940;2022-12-18T04:28:04;16.05;;;9.50;;
40871;SDS011;26591;43.264;26.940;2022-12-18T04:30:32;15.88;;;10.25;;
40871;SDS011;26591;43.264;26.940;2022-12-18T04:32:58;18.90;;;10.82;;
40871;SDS011;26591;43.264;26.940;2022-12-18T04:35:23;16.25;;;10.23;;
40871;SDS011;26591;43.264;26.940;2022-12-18T04:37:51;16.27;;;11.07;;
40871;SDS011;26591;43.264;26.940;2022-12-18T04:40:17;15.73;;;10.38;;
40871;SDS011;26591;43.264;26.940;2022-12-18T04:42:43;15.88;;;10.45;;
40871;SDS011;26591;43.264;26.940;2022-12-18T04:45:08;15.65;;;10.77;;
40871;SDS011;26591;43.264;26.940;2022-12-18T04:47:34;20.95;;;11.30;;
40871;SDS011;26591;43.264;26.940;2022-12-18T04:50:00;16.73;;;10.68;;
40871;SDS011;26591;43.264;26.940;2022-12-18T04:52:41;18.83;;;11.68;;
40871;SDS011;26591;43.264;26.940;2022-12-18T04:55:07;19.42;;;10.88;;
40871;SDS011;26591;43.264;26.940;2022-12-18T04:57:32;23.77;;;12.23;;
40871;SDS011;26591;43.264;26.940;2022-12-18T04:59:58;15.18;;;10.23;;
40871;SDS011;26591;43.264;26.940;2022-12-18T05:02:23;16.70;;;10.20;;
40871;SDS011;26591;43.264;26.940;2022-12-18T05:04:49;17.65;;;10.75;;
40871;SDS011;26591;43.264;26.940;2022-12-18T05:07:24;16.23;;;10.82;;
40871;SDS011;26591;43.264;26.940;2022-12-18T05:09:49;18.63;;;10.40;;
40871;SDS011;26591;43.264;26.940;2022-12-18T05:12:15;15.27;;;10.10;;
40871;SDS011;26591;43.264;26.940;2022-12-18T05:14:40;15.13;;;9.95;;
40871;SDS011;26591;43.264;26.940;2022-12-18T05:17:06;18.92;;;11.02;;
40871;SDS011;26591;43.264;26.940;2022-12-18T05:19:32;18.25;;;11.30;;
40871;SDS011;26591;43.264;26.940;2022-12-18T05:21:57;15.05;;;9.68;;
40871;SDS011;26591;43.264;26.940;2022-12-18T05:24:23;15.63;;;10.82;;
40871;SDS011;26591;43.264;26.940;2022-12-18T05:26:48;21.38;;;11.32;;
40871;SDS011;26591;43.264;26.940;2022-12-18T05:29:15;18.45;;;12.05;;
40871;SDS011;26591;43.264;26.940;2022-12-18T05:31:40;16.73;;;11.00;;
40871;SDS011;26591;43.264;26.940;2022-12-18T05:34:06;17.25;;;11.27;;
40871;SDS011;26591;43.264;26.940;2022-12-18T05:36:32;20.20;;;12.77;;
40871;SDS011;26591;43.264;26.940;2022-12-18T05:38:57;19.60;;;13.52;;
40871;SDS011;26591;43.264;26.940;2022-12-18T05:41:23;16.48;;;11.43;;
40871;SDS011;26591;43.264;26.940;2022-12-18T05:43:48;25.65;;;12.20;;
40871;SDS011;26591;43.264;26.940;2022-12-18T05:46:15;17.88;;;11.73;;
40871;SDS011;26591;43.264;26.940;2022-12-18T05:48:45;19.27;;;12.70;;
40871;SDS011;26591;43.264;26.940;2022-12-18T05:51:15;18.02;;;11.05;;
40871;SDS011;26591;43.264;26.940;2022-12-18T05:53:42;19.45;;;12.05;;
40871;SDS011;26591;43.264;26.940;2022-12-18T05:56:09;20.33;;;12.23;;
40871;SDS011;26591;43.264;26.940;2022-12-18T05:58:39;18.88;;;12.45;;
40871;SDS011;26591;43.264;26.940;2022-12-18T06:01:08;23.70;;;14.20;;
40871;SDS011;26591;43.264;26.940;2022-12-18T06:03:42;20.15;;;13.52;;
40871;SDS011;26591;43.264;26.940;2022-12-18T06:06:17;20.45;;;12.73;;
40871;SDS011;26591;43.264;26.940;2022-12-18T06:08:50;18.40;;;12.05;;
40871;SDS011;26591;43.264;26.940;2022-12-18T06:11:18;21.88;;;13.75;;
40871;SDS011;26591;43.264;26.940;2022-12-18T06:13:45;31.02;;;15.60;;
40871;SDS011;26591;43.264;26.940;2022-12-18T06:16:11;31.42;;;18.50;;
40871;SDS011;26591;43.264;26.940;2022-12-18T06:18:37;25.77;;;14.98;;
40871;SDS011;26591;43.264;26.940;2022-12-18T06:21:02;22.95;;;14.02;;
40871;SDS011;26591;43.264;26.940;2022-12-18T06:23:37;22.75;;;14.00;;
40871;SDS011;26591;43.264;26.940;2022-12-18T06:26:06;23.52;;;14.10;;
40871;SDS011;26591;43.264;26.940;2022-12-18T06:28:33;24.42;;;14.68;;
40871;SDS011;26591;43.264;26.940;2022-12-18T06:30:59;21.27;;;13.82;;
40871;SDS011;26591;43.264;26.940;2022-12-18T06:33:27;23.38;;;13.70;;
40871;SDS011;26591;43.264;26.940;2022-12-18T06:35:53;21.33;;;13.82;;
40871;SDS011;26591;43.264;26.940;2022-12-18T06:40:49;22.05;;;14.95;;
40871;SDS011;26591;43.264;26.940;2022-12-18T06:43:14;27.42;;;15.93;;
40871;SDS011;26591;43.264;26.940;2022-12-18T06:45:40;26.33;;;14.80;;
40871;SDS011;26591;43.264;26.940;2022-12-18T06:48:05;37.50;;;19.83;;
40871;SDS011;26591;43.264;26.940;2022-12-18T06:50:31;24.13;;;15.17;;
40871;SDS011;26591;43.264;26.940;2022-12-18T06:52:56;23.60;;;15.50;;
40871;SDS011;26591;43.264;26.940;2022-12-18T06:55:22;25.45;;;15.07;;
40871;SDS011;26591;43.264;26.940;2022-12-18T06:57:47;27.27;;;16.52;;
40871;SDS011;26591;43.264;26.940;2022-12-18T07:00:13;26.50;;;14.93;;
40871;SDS011;26591;43.264;26.940;2022-12-18T07:02:39;24.77;;;16.45;;
40871;SDS011;26591;43.264;26.940;2022-12-18T07:05:05;24.88;;;15.23;;
40871;SDS011;26591;43.264;26.940;2022-12-18T07:07:31;26.42;;;15.48;;
40871;SDS011;26591;43.264;26.940;2022-12-18T07:09:59;25.92;;;15.00;;
40871;SDS011;26591;43.264;26.940;2022-12-18T07:12:24;29.50;;;16.63;;
40871;SDS011;26591;43.264;26.940;2022-12-18T07:14:51;28.25;;;16.38;;
40871;SDS011;26591;43.264;26.940;2022-12-18T07:17:16;25.25;;;15.60;;
40871;SDS011;26591;43.264;26.940;2022-12-18T07:19:42;25.08;;;14.10;;
40871;SDS011;26591;43.264;26.940;2022-12-18T07:22:07;24.92;;;14.07;;
40871;SDS011;26591;43.264;26.940;2022-12-18T07:24:33;27.58;;;15.48;;
40871;SDS011;26591;43.264;26.940;2022-12-18T07:26:59;28.33;;;15.77;;
40871;SDS011;26591;43.264;26.940;2022-12-18T07:29:26;25.67;;;16.05;;
40871;SDS011;26591;43.264;26.940;2022-12-18T07:31:51;23.35;;;14.68;;
40871;SDS011;26591;43.264;26.940;2022-12-18T07:34:17;24.05;;;15.57;;
40871;SDS011;26591;43.264;26.940;2022-12-18T07:36:42;26.67;;;16.55;;
40871;SDS011;26591;43.264;26.940;2022-12-18T07:39:08;26.48;;;16.42;;
40871;SDS011;26591;43.264;26.940;2022-12-18T07:41:36;32.00;;;17.58;;
40871;SDS011;26591;43.264;26.940;2022-12-18T07:44:02;27.42;;;17.80;;
40871;SDS011;26591;43.264;26.940;2022-12-18T07:46:27;46.38;;;26.15;;
40871;SDS011;26591;43.264;26.940;2022-12-18T07:48:53;27.58;;;18.15;;
40871;SDS011;26591;43.264;26.940;2022-12-18T07:51:18;72.50;;;30.58;;
40871;SDS011;26591;43.264;26.940;2022-12-18T07:53:44;124.30;;;44.95;;
40871;SDS011;26591;43.264;26.940;2022-12-18T07:56:11;112.93;;;35.60;;
40871;SDS011;26591;43.264;26.940;2022-12-18T07:58:37;63.35;;;29.35;;
40871;SDS011;26591;43.264;26.940;2022-12-18T08:01:07;60.70;;;30.83;;
40871;SDS011;26591;43.264;26.940;2022-12-18T08:03:37;33.63;;;19.27;;
40871;SDS011;26591;43.264;26.940;2022-12-18T08:06:04;39.75;;;20.08;;
40871;SDS011;26591;43.264;26.940;2022-12-18T08:08:31;28.67;;;18.70;;
40871;SDS011;26591;43.264;26.940;2022-12-18T08:10:57;29.40;;;18.35;;
40871;SDS011;26591;43.264;26.940;2022-12-18T08:13:23;31.98;;;19.67;;
40871;SDS011;26591;43.264;26.940;2022-12-18T08:15:58;63.03;;;35.50;;
40871;SDS011;26591;43.264;26.940;2022-12-18T08:18:27;30.10;;;18.00;;
40871;SDS011;26591;43.264;26.940;2022-12-18T08:20:54;37.03;;;21.75;;
40871;SDS011;26591;43.264;26.940;2022-12-18T08:23:20;49.78;;;28.02;;
40871;SDS011;26591;43.264;26.940;2022-12-18T08:25:48;32.70;;;18.27;;
40871;SDS011;26591;43.264;26.940;2022-12-18T08:28:14;35.47;;;20.02;;
40871;SDS011;26591;43.264;26.940;2022-12-18T08:30:40;34.03;;;20.80;;
40871;SDS011;26591;43.264;26.940;2022-12-18T08:33:05;40.83;;;22.92;;
40871;SDS011;26591;43.264;26.940;2022-12-18T08:35:34;37.25;;;21.27;;
40871;SDS011;26591;43.264;26.940;2022-12-18T08:38:01;31.03;;;18.93;;
40871;SDS011;26591;43.264;26.940;2022-12-18T08:40:27;33.00;;;19.17;;
40871;SDS011;26591;43.264;26.940;2022-12-18T08:42:52;30.10;;;17.63;;
40871;SDS011;26591;43.264;26.940;2022-12-18T08:45:36;32.60;;;18.75;;
40871;SDS011;26591;43.264;26.940;2022-12-18T08:48:02;36.47;;;20.48;;
40871;SDS011;26591;43.264;26.940;2022-12-18T08:50:27;30.98;;;18.88;;
40871;SDS011;26591;43.264;26.940;2022-12-18T08:52:53;33.88;;;18.75;;
40871;SDS011;26591;43.264;26.940;2022-12-18T08:55:18;34.05;;;20.52;;
40871;SDS011;26591;43.264;26.940;2022-12-18T08:57:47;46.15;;;26.88;;
40871;SDS011;26591;43.264;26.940;2022-12-18T09:00:14;37.53;;;19.70;;
40871;SDS011;26591;43.264;26.940;2022-12-18T09:02:39;36.08;;;20.35;;
40871;SDS011;26591;43.264;26.940;2022-12-18T09:05:05;34.22;;;20.30;;
40871;SDS011;26591;43.264;26.940;2022-12-18T09:07:33;38.58;;;20.55;;
40871;SDS011;26591;43.264;26.940;2022-12-18T09:09:59;31.98;;;19.70;;
40871;SDS011;26591;43.264;26.940;2022-12-18T09:12:25;43.97;;;22.70;;
40871;SDS011;26591;43.264;26.940;2022-12-18T09:14:50;34.25;;;19.80;;
40871;SDS011;26591;43.264;26.940;2022-12-18T09:17:16;34.58;;;19.42;;
40871;SDS011;26591;43.264;26.940;2022-12-18T09:19:41;35.97;;;19.33;;
40871;SDS011;26591;43.264;26.940;2022-12-18T09:22:07;35.95;;;21.30;;
40871;SDS011;26591;43.264;26.940;2022-12-18T09:24:32;39.80;;;23.00;;
40871;SDS011;26591;43.264;26.940;2022-12-18T09:26:58;35.90;;;20.27;;
40871;SDS011;26591;43.264;26.940;2022-12-18T09:29:23;31.70;;;19.55;;
40871;SDS011;26591;43.264;26.940;2022-12-18T09:31:51;29.33;;;18.60;;
40871;SDS011;26591;43.264;26.940;2022-12-18T09:34:17;31.92;;;19.52;;
40871;SDS011;26591;43.264;26.940;2022-12-18T09:36:42;37.45;;;19.13;;
40871;SDS011;26591;43.264;26.940;2022-12-18T09:39:08;37.05;;;20.08;;
40871;SDS011;26591;43.264;26.940;2022-12-18T09:44:19;33.25;;;20.50;;
40871;SDS011;26591;43.264;26.940;2022-12-18T09:49:35;32.38;;;20.02;;
40871;SDS011;26591;43.264;26.940;2022-12-18T09:52:09;37.03;;;22.80;;
40871;SDS011;26591;43.264;26.940;2022-12-18T09:54:39;36.13;;;21.63;;
40871;SDS011;26591;43.264;26.940;2022-12-18T09:57:15;30.08;;;20.02;;
40871;SDS011;26591;43.264;26.940;2022-12-18T09:59:46;35.65;;;21.33;;
40871;SDS011;26591;43.264;26.940;2022-12-18T10:02:18;30.10;;;19.52;;
40871;SDS011;26591;43.264;26.940;2022-12-18T10:04:49;31.40;;;19.17;;
40871;SDS011;26591;43.264;26.940;2022-12-18T10:07:24;34.13;;;20.02;;
40871;SDS011;26591;43.264;26.940;2022-12-18T10:10:06;29.48;;;18.63;;
40871;SDS011;26591;43.264;26.940;2022-12-18T10:15:19;35.85;;;20.08;;
40871;SDS011;26591;43.264;26.940;2022-12-18T10:20:37;53.70;;;29.70;;
40871;SDS011;26591;43.264;26.940;2022-12-18T10:23:20;42.47;;;22.02;;
40871;SDS011;26591;43.264;26.940;2022-12-18T10:26:06;37.47;;;22.63;;
40871;SDS011;26591;43.264;26.940;2022-12-18T10:28:37;59.60;;;30.85;;
40871;SDS011;26591;43.264;26.940;2022-12-18T10:31:07;36.95;;;22.90;;
40871;SDS011;26591;43.264;26.940;2022-12-18T10:33:41;34.00;;;21.20;;
40871;SDS011;26591;43.264;26.940;2022-12-18T10:36:07;33.67;;;20.33;;
40871;SDS011;26591;43.264;26.940;2022-12-18T10:38:33;38.22;;;22.33;;
40871;SDS011;26591;43.264;26.940;2022-12-18T10:41:00;32.13;;;20.25;;
40871;SDS011;26591;43.264;26.940;2022-12-18T10:43:27;31.88;;;20.25;;
40871;SDS011;26591;43.264;26.940;2022-12-18T10:48:47;33.20;;;20.38;;
40871;SDS011;26591;43.264;26.940;2022-12-18T10:51:27;43.55;;;25.83;;
40871;SDS011;26591;43.264;26.940;2022-12-18T10:54:01;38.20;;;23.25;;
40871;SDS011;26591;43.264;26.940;2022-12-18T10:56:33;43.28;;;22.92;;
40871;SDS011;26591;43.264;26.940;2022-12-18T10:59:01;38.03;;;23.33;;
40871;SDS011;26591;43.264;26.940;2022-12-18T11:01:49;39.00;;;22.60;;
40871;SDS011;26591;43.264;26.940;2022-12-18T11:04:19;43.15;;;22.00;;
40871;SDS011;26591;43.264;26.940;2022-12-18T11:07:02;57.55;;;31.13;;
40871;SDS011;26591;43.264;26.940;2022-12-18T11:09:59;36.70;;;23.42;;
40871;SDS011;26591;43.264;26.940;2022-12-18T11:12:25;77.00;;;44.13;;
40871;SDS011;26591;43.264;26.940;2022-12-18T11:14:54;52.28;;;31.17;;
40871;SDS011;26591;43.264;26.940;2022-12-18T11:17:28;53.38;;;31.75;;
40871;SDS011;26591;43.264;26.940;2022-12-18T11:22:28;57.70;;;34.38;;
40871;SDS011;26591;43.264;26.940;2022-12-18T11:24:58;46.58;;;29.83;;
40871;SDS011;26591;43.264;26.940;2022-12-18T11:27:26;40.40;;;24.95;;
40871;SDS011;26591;43.264;26.940;2022-12-18T11:30:06;37.22;;;23.25;;
40871;SDS011;26591;43.264;26.940;2022-12-18T11:32:35;33.75;;;21.08;;
40871;SDS011;26591;43.264;26.940;2022-12-18T11:37:37;38.58;;;22.63;;
40871;SDS011;26591;43.264;26.940;2022-12-18T11:40:10;34.75;;;20.73;;
40871;SDS011;26591;43.264;26.940;2022-12-18T11:42:48;34.35;;;21.13;;
40871;SDS011;26591;43.264;26.940;2022-12-18T11:45:30;32.28;;;21.15;;
40871;SDS011;26591;43.264;26.940;2022-12-18T11:48:24;33.83;;;21.88;;
40871;SDS011;26591;43.264;26.940;2022-12-18T11:51:16;30.98;;;21.13;;
40871;SDS011;26591;43.264;26.940;2022-12-18T11:53:53;35.45;;;21.13;;
40871;SDS011;26591;43.264;26.940;2022-12-18T11:59:04;45.42;;;26.00;;
40871;SDS011;26591;43.264;26.940;2022-12-18T12:02:12;47.75;;;22.75;;
40871;SDS011;26591;43.264;26.940;2022-12-18T12:29:31;42.67;;;23.60;;
40871;SDS011;26591;43.264;26.940;2022-12-18T12:35:27;40.85;;;25.20;;
40871;SDS011;26591;43.264;26.940;2022-12-18T12:39:08;46.42;;;25.70;;
40871;SDS011;26591;43.264;26.940;2022-12-18T12:41:07;45.42;;;25.27;;
40871;SDS011;26591;43.264;26.940;2022-12-18T12:43:56;40.78;;;24.95;;
40871;SDS011;26591;43.264;26.940;2022-12-18T12:46:25;49.75;;;27.45;;
40871;SDS011;26591;43.264;26.940;2022-12-18T12:49:04;41.53;;;26.45;;
40871;SDS011;26591;43.264;26.940;2022-12-18T12:51:43;45.95;;;27.85;;
40871;SDS011;26591;43.264;26.940;2022-12-18T12:54:16;55.70;;;29.08;;
40871;SDS011;26591;43.264;26.940;2022-12-18T13:05:10;43.95;;;24.98;;
40871;SDS011;26591;43.264;26.940;2022-12-18T13:08:08;42.75;;;24.77;;
40871;SDS011;26591;43.264;26.940;2022-12-18T13:10:36;43.67;;;26.27;;
40871;SDS011;26591;43.264;26.940;2022-12-18T13:13:06;42.13;;;26.80;;
40871;SDS011;26591;43.264;26.940;2022-12-18T13:15:45;46.67;;;26.77;;
40871;SDS011;26591;43.264;26.940;2022-12-18T13:18:16;44.97;;;26.85;;
40871;SDS011;26591;43.264;26.940;2022-12-18T13:23:48;48.53;;;27.52;;
40871;SDS011;26591;43.264;26.940;2022-12-18T13:31:11;42.30;;;27.23;;
40871;SDS011;26591;43.264;26.940;2022-12-18T13:33:43;71.53;;;37.40;;
40871;SDS011;26591;43.264;26.940;2022-12-18T13:36:44;67.25;;;35.03;;
40871;SDS011;26591;43.264;26.940;2022-12-18T13:39:09;49.00;;;26.77;;
40871;SDS011;26591;43.264;26.940;2022-12-18T13:41:50;46.72;;;28.15;;
40871;SDS011;26591;43.264;26.940;2022-12-18T13:46:49;67.80;;;36.85;;
40871;SDS011;26591;43.264;26.940;2022-12-18T13:55:02;73.35;;;39.95;;
40871;SDS011;26591;43.264;26.940;2022-12-18T13:59:57;67.15;;;39.03;;
40871;SDS011;26591;43.264;26.940;2022-12-18T14:02:37;48.15;;;29.17;;
40871;SDS011;26591;43.264;26.940;2022-12-18T14:05:20;52.47;;;29.38;;
40871;SDS011;26591;43.264;26.940;2022-12-18T14:10:15;45.45;;;26.65;;
40871;SDS011;26591;43.264;26.940;2022-12-18T14:12:44;42.10;;;25.30;;
40871;SDS011;26591;43.264;26.940;2022-12-18T14:17:51;46.90;;;27.73;;
40871;SDS011;26591;43.264;26.940;2022-12-18T14:20:19;46.25;;;27.33;;
40871;SDS011;26591;43.264;26.940;2022-12-18T14:22:46;52.33;;;30.20;;
40871;SDS011;26591;43.264;26.940;2022-12-18T14:25:18;51.15;;;29.98;;
40871;SDS011;26591;43.264;26.940;2022-12-18T14:30:36;44.90;;;27.03;;
40871;SDS011;26591;43.264;26.940;2022-12-18T14:36:00;43.35;;;24.52;;
40871;SDS011;26591;43.264;26.940;2022-12-18T14:38:39;42.40;;;26.48;;
40871;SDS011;26591;43.264;26.940;2022-12-18T14:41:12;40.20;;;25.65;;
40871;SDS011;26591;43.264;26.940;2022-12-18T14:43:39;42.50;;;26.08;;
40871;SDS011;26591;43.264;26.940;2022-12-18T14:48:53;49.08;;;29.33;;
40871;SDS011;26591;43.264;26.940;2022-12-18T14:51:20;46.78;;;28.60;;
40871;SDS011;26591;43.264;26.940;2022-12-18T14:53:58;45.58;;;28.52;;
40871;SDS011;26591;43.264;26.940;2022-12-18T14:56:31;44.05;;;28.20;;
40871;SDS011;26591;43.264;26.940;2022-12-18T14:59:11;46.28;;;26.95;;
40871;SDS011;26591;43.264;26.940;2022-12-18T15:01:49;43.67;;;27.80;;
40871;SDS011;26591;43.264;26.940;2022-12-18T15:04:43;45.55;;;27.75;;
40871;SDS011;26591;43.264;26.940;2022-12-18T15:07:12;46.40;;;27.92;;
40871;SDS011;26591;43.264;26.940;2022-12-18T15:18:12;44.10;;;26.48;;
40871;SDS011;26591;43.264;26.940;2022-12-18T15:26:13;44.05;;;27.00;;
40871;SDS011;26591;43.264;26.940;2022-12-18T15:31:35;47.83;;;27.08;;
40871;SDS011;26591;43.264;26.940;2022-12-18T15:36:32;49.20;;;28.40;;
40871;SDS011;26591;43.264;26.940;2022-12-18T15:39:01;52.47;;;30.13;;
40871;SDS011;26591;43.264;26.940;2022-12-18T15:44:36;57.47;;;32.13;;
40871;SDS011;26591;43.264;26.940;2022-12-18T15:47:02;56.85;;;32.08;;
40871;SDS011;26591;43.264;26.940;2022-12-18T15:49:27;58.03;;;34.95;;
40871;SDS011;26591;43.264;26.940;2022-12-18T15:51:57;55.95;;;34.15;;
40871;SDS011;26591;43.264;26.940;2022-12-18T15:54:24;54.28;;;33.28;;
40871;SDS011;26591;43.264;26.940;2022-12-18T15:57:09;54.22;;;32.50;;
40871;SDS011;26591;43.264;26.940;2022-12-18T15:59:48;59.67;;;33.78;;
40871;SDS011;26591;43.264;26.940;2022-12-18T16:02:15;64.38;;;35.28;;
40871;SDS011;26591;43.264;26.940;2022-12-18T16:04:42;68.95;;;40.35;;
40871;SDS011;26591;43.264;26.940;2022-12-18T16:07:08;63.55;;;37.13;;
40871;SDS011;26591;43.264;26.940;2022-12-18T16:09:34;62.03;;;36.08;;
40871;SDS011;26591;43.264;26.940;2022-12-18T16:12:00;65.95;;;36.22;;
40871;SDS011;26591;43.264;26.940;2022-12-18T16:14:26;60.92;;;33.58;;
40871;SDS011;26591;43.264;26.940;2022-12-18T16:16:55;77.45;;;41.42;;
40871;SDS011;26591;43.264;26.940;2022-12-18T16:19:21;69.47;;;37.35;;
40871;SDS011;26591;43.264;26.940;2022-12-18T16:21:47;60.88;;;35.55;;
40871;SDS011;26591;43.264;26.940;2022-12-18T16:24:21;79.07;;;43.83;;
40871;SDS011;26591;43.264;26.940;2022-12-18T16:26:58;81.03;;;40.45;;
40871;SDS011;26591;43.264;26.940;2022-12-18T16:29:25;63.03;;;34.08;;
40871;SDS011;26591;43.264;26.940;2022-12-18T16:31:52;69.18;;;38.08;;
40871;SDS011;26591;43.264;26.940;2022-12-18T16:36:51;98.18;;;46.47;;
40871;SDS011;26591;43.264;26.940;2022-12-18T16:39:18;113.00;;;50.27;;
40871;SDS011;26591;43.264;26.940;2022-12-18T16:41:45;81.47;;;43.90;;
40871;SDS011;26591;43.264;26.940;2022-12-18T16:44:11;90.50;;;45.42;;
40871;SDS011;26591;43.264;26.940;2022-12-18T16:46:37;105.63;;;52.20;;
40871;SDS011;26591;43.264;26.940;2022-12-18T16:49:03;90.47;;;47.33;;
40871;SDS011;26591;43.264;26.940;2022-12-18T16:51:29;64.88;;;37.47;;